LEPALEGE

Guest
Details From LEPA - Palma De Mallorca
To LEGE - Girona
Flight Number -
Tags Generated
Created
Modified
Stats Distance 141 nm / 261 km
Max Altitude 0 ft / 0 m
Waypoints 2
Social Downloads 4
Likes 0
Share VATSIM

Download

Looking for another format? Having issues loading an existing format? Contact us
Advertisement - Login to hide

Notes

Generated

Route

LEPA LEGE

ID Type Via Altitude Latitude Longitude Leg Dist Tot Dist Heading (true) Name
O LEPA APT - 0 ft / 0 m 39.54873˚ 2.71867˚ - 0 nm - -
O LEGE APT - 0 ft / 0 m 41.89491˚ 2.75826˚ 140 nm 140 nm 1° / 1° -

Altitude Profile

Advertisement - Login to hide

LEPA

Details ICAO LEPA (PMI)
Name Palma De Mallorca
Region Spain
Timezone Europe/Madrid (UTC+1.0)
Stats Elevation 24 ft / 7 m (AMSL)
Location 39.552536° 2.734958°
Runways 3
Magnetic Variation 0.986° E

METAR

LEPA 140030Z 25011KT 9999 FEW026 14/08 Q1020 NOSIG

Decode

TAF

TAF LEPA 132300Z 1400/1424 25012KT 9999 FEW020 TX17/1412Z TN08/1406Z PROB30 TEMPO 1400/1406 25015G25KT TEMPO 1418/1424 25015G25KT

Decode

Departure Runways

ID Width Length Bearing (true) Bearing (mag) Surface Threshold Offset Overrun Length
06C 148 ft / 45 m 8,181 ft / 2,494 m 58.47° 57.48° Asphalt 0 ft / 0 m 0 ft / 0 m
06L 148 ft / 45 m 10,716 ft / 3,266 m 58.46° 57.47° Asphalt 0 ft / 0 m 0 ft / 0 m
06R 148 ft / 45 m 9,832 ft / 2,997 m 58.48° 57.49° Asphalt 1,345 ft / 410 m 0 ft / 0 m
24C 148 ft / 45 m 8,181 ft / 2,494 m 238.49° 237.50° Asphalt 0 ft / 0 m 0 ft / 0 m
24L 148 ft / 45 m 9,832 ft / 2,997 m 238.50° 237.51° Asphalt 0 ft / 0 m 197 ft / 60 m
24R 148 ft / 45 m 10,716 ft / 3,266 m 238.48° 237.49° Asphalt 230 ft / 70 m 0 ft / 0 m

LEGE

Details ICAO LEGE (GRO)
Name Girona
Region Spain
Timezone Europe/Madrid (UTC+1.0)
Stats Elevation 403 ft / 123 m (AMSL)
Location 41.905202° 2.762133°
Runways 1
Magnetic Variation 0.977° E

METAR

LEGE 140030Z VRB01KT CAVOK 04/02 Q1016

Decode

TAF

TAF LEGE 132300Z 1400/1424 VRB04KT 9999 FEW030 TX15/1412Z TN01/1406Z TEMPO 1414/1416 26007KT TEMPO 1418/1424 31007KT

Decode

Destination Runways

ID Width Length Bearing (true) Bearing (mag) Surface Threshold Offset Overrun Length
02 148 ft / 45 m 7,880 ft / 2,402 m 15.50° 14.52° Asphalt 0 ft / 0 m 210 ft / 64 m
20 148 ft / 45 m 7,880 ft / 2,402 m 195.50° 194.52° Asphalt 0 ft / 0 m 200 ft / 61 m

Approach Navaids

Runway Type Ident Frequency Range Bearing (true) Bearing (mag) Slope Elevation
20 Localiser IGN 109.90 MHz 18 nm / 33 km 195.60° 194.62° - 468 ft / 143 m (AMSL)
20 Glidescope IGN 109.90 MHz 10 nm / 19 km 195.50° 194.52° 3.00° 403 ft / 123 m (AMSL)
20 DME IGN 109.90 MHz 18 nm / 33 km - - - 463 ft / 141 m (AMSL)

Popular Alternatives